Time;durP1;ratioP1;P1;durP2;ratioP2;P2;SDS_P1;SDS_P2;PMS_P1;PMS_P2;Temp;Humidity;BMP_temperature;BMP_pressure;BME280_temperature;BME280_humidity;BME280_pressure;Samples;Min_cycle;Max_cycle;Signal;HPM_P1;HPM_P2
2022/02/27 00:00:24;;;;;;;18.05;6.95;;;2.90;99.90;;;;;;2102994;28;20039;-68
2022/02/27 00:01:24;;;;;;;15.00;7.50;;;2.90;99.90;;;;;;2106183;28;20051;-67
2022/02/27 00:02:25;;;;;;;20.65;6.18;;;2.80;99.90;;;;;;2104666;28;20027;-68
2022/02/27 00:03:26;;;;;;;15.75;7.13;;;2.80;99.90;;;;;;2101900;28;20029;-68
2022/02/27 00:04:26;;;;;;;17.08;6.82;;;2.80;99.90;;;;;;2107099;28;20024;-67
2022/02/27 00:05:27;;;;;;;16.15;6.75;;;2.80;99.90;;;;;;2102365;28;20040;-68
2022/02/27 00:06:27;;;;;;;15.13;6.50;;;2.80;99.90;;;;;;2100067;28;20028;-68
2022/02/27 00:07:28;;;;;;;16.10;6.32;;;2.80;99.90;;;;;;2107827;28;20023;-67
2022/02/27 00:08:28;;;;;;;14.77;6.90;;;2.80;99.90;;;;;;2104024;28;20539;-67
2022/02/27 00:09:29;;;;;;;14.85;6.47;;;2.80;99.90;;;;;;2105190;28;20035;-67
2022/02/27 00:10:30;;;;;;;16.77;6.47;;;2.80;99.90;;;;;;2105016;28;20035;-68
2022/02/27 00:11:31;;;;;;;12.18;6.20;;;2.70;99.90;;;;;;2102624;28;20025;-67
2022/02/27 00:12:31;;;;;;;15.20;6.00;;;2.70;99.90;;;;;;2106584;28;20024;-68
2022/02/27 00:13:32;;;;;;;10.35;6.47;;;2.70;99.90;;;;;;2101334;28;20032;-67
2022/02/27 00:14:32;;;;;;;13.05;6.60;;;2.70;99.90;;;;;;2100270;28;20135;-67
2022/02/27 00:15:33;;;;;;;17.80;6.47;;;2.70;99.90;;;;;;2106730;28;20128;-67
2022/02/27 00:16:34;;;;;;;17.02;6.70;;;2.70;99.90;;;;;;2103785;28;20069;-67
2022/02/27 00:17:38;;;;;;;17.40;6.78;;;2.70;99.90;;;;;;2103971;28;20031;-67
2022/02/27 00:18:38;;;;;;;13.13;6.28;;;2.70;99.90;;;;;;2105142;28;20122;-68
2022/02/27 00:19:39;;;;;;;15.32;6.63;;;2.70;99.90;;;;;;2101446;28;20024;-67
2022/02/27 00:20:40;;;;;;;13.50;6.25;;;2.70;99.90;;;;;;2105665;28;20106;-67
2022/02/27 00:21:42;;;;;;;15.27;6.60;;;2.70;99.90;;;;;;2100148;28;20060;-67
2022/02/27 00:22:42;;;;;;;12.93;6.63;;;2.70;99.90;;;;;;2100203;28;20531;-67
2022/02/27 00:23:43;;;;;;;13.85;6.10;;;2.70;99.90;;;;;;2105152;28;20489;-67
2022/02/27 00:24:43;;;;;;;18.05;6.40;;;2.70;99.90;;;;;;2103049;28;20353;-67
2022/02/27 00:25:44;;;;;;;15.18;6.57;;;2.70;99.90;;;;;;2099498;28;20017;-67
2022/02/27 00:26:44;;;;;;;16.88;7.35;;;2.60;99.90;;;;;;2102872;28;20089;-67
2022/02/27 00:27:45;;;;;;;15.48;6.65;;;2.60;99.90;;;;;;2100881;28;20024;-67
2022/02/27 00:28:45;;;;;;;17.75;7.10;;;2.60;99.90;;;;;;2104866;28;20015;-67
2022/02/27 00:29:46;;;;;;;14.15;6.40;;;2.60;99.90;;;;;;2101866;28;20016;-68
2022/02/27 00:30:47;;;;;;;18.25;6.63;;;2.60;99.90;;;;;;2104396;28;20031;-68
2022/02/27 00:31:47;;;;;;;16.98;6.53;;;2.60;99.90;;;;;;2104826;28;20028;-68
2022/02/27 00:32:48;;;;;;;19.25;6.97;;;2.60;99.90;;;;;;2102613;28;20027;-67
2022/02/27 00:33:48;;;;;;;17.58;6.32;;;2.60;99.90;;;;;;2107318;28;20507;-67
2022/02/27 00:34:49;;;;;;;15.93;6.32;;;2.60;99.90;;;;;;2103345;28;20166;-68
2022/02/27 00:35:49;;;;;;;19.10;6.25;;;2.50;99.90;;;;;;2100811;28;20026;-67
2022/02/27 00:36:51;;;;;;;17.80;5.95;;;2.50;99.90;;;;;;2103475;28;20044;-67
2022/02/27 00:37:52;;;;;;;17.80;5.95;;;2.60;99.90;;;;;;2105053;28;20117;-67
2022/02/27 00:38:53;;;;;;;17.00;6.10;;;2.50;99.90;;;;;;2103197;28;20032;-67
2022/02/27 00:39:53;;;;;;;15.07;5.25;;;2.50;99.90;;;;;;2103649;28;20026;-67
2022/02/27 00:40:53;;;;;;;15.60;6.47;;;2.50;99.90;;;;;;2102264;28;20038;-68
2022/02/27 00:41:54;;;;;;;16.15;6.13;;;2.50;99.90;;;;;;2104282;28;20043;-68
2022/02/27 00:42:55;;;;;;;15.02;6.10;;;2.50;99.90;;;;;;2104728;28;20020;-67
2022/02/27 00:43:55;;;;;;;12.70;5.97;;;2.50;99.90;;;;;;2100928;28;20465;-67
2022/02/27 00:44:56;;;;;;;18.42;6.38;;;2.50;99.90;;;;;;2104603;28;20024;-67
2022/02/27 00:45:56;;;;;;;20.60;6.53;;;2.50;99.90;;;;;;2100187;28;20035;-68
2022/02/27 00:46:57;;;;;;;14.27;5.60;;;2.50;99.90;;;;;;2103743;28;20021;-67
2022/02/27 00:47:58;;;;;;;15.77;7.00;;;2.50;99.90;;;;;;2101204;28;20026;-67
2022/02/27 00:48:58;;;;;;;12.25;6.00;;;2.50;99.90;;;;;;2100242;28;20024;-68
2022/02/27 00:49:59;;;;;;;16.40;6.25;;;2.50;99.90;;;;;;2102423;28;20441;-67
2022/02/27 00:50:59;;;;;;;15.90;6.35;;;2.50;99.90;;;;;;2104265;28;20028;-67
2022/02/27 00:52:00;;;;;;;14.52;6.30;;;2.50;99.90;;;;;;2104194;28;20103;-67
2022/02/27 00:53:01;;;;;;;10.65;6.07;;;2.50;99.90;;;;;;2102006;28;20042;-67
2022/02/27 00:54:02;;;;;;;17.70;5.53;;;2.50;99.90;;;;;;2101479;28;20032;-67
2022/02/27 00:55:03;;;;;;;12.38;5.82;;;2.50;99.90;;;;;;2106371;28;20471;-67
2022/02/27 00:56:04;;;;;;;16.25;6.75;;;2.50;99.90;;;;;;2105074;28;20082;-68
2022/02/27 00:57:04;;;;;;;20.85;6.15;;;2.50;99.90;;;;;;2099657;28;20025;-68
2022/02/27 00:58:05;;;;;;;14.00;5.43;;;2.50;99.90;;;;;;2102607;28;20043;-67
2022/02/27 00:59:05;;;;;;;11.93;5.22;;;2.50;99.90;;;;;;2104957;28;20115;-67
2022/02/27 01:00:07;;;;;;;13.98;5.53;;;2.50;99.90;;;;;;2100325;28;20036;-67
2022/02/27 01:01:08;;;;;;;13.18;5.00;;;2.50;99.90;;;;;;2099571;28;20028;-67
2022/02/27 01:02:08;;;;;;;21.88;6.18;;;2.60;99.90;;;;;;2100902;28;20097;-68
2022/02/27 01:03:09;;;;;;;16.42;5.20;;;2.60;99.90;;;;;;2105114;28;20032;-68
2022/02/27 01:04:09;;;;;;;17.65;5.50;;;2.50;99.90;;;;;;2103693;28;20016;-68
2022/02/27 01:05:10;;;;;;;13.20;4.85;;;2.60;99.90;;;;;;2101825;28;20105;-67
2022/02/27 01:06:11;;;;;;;14.60;6.18;;;2.60;99.90;;;;;;2103304;28;20016;-67
2022/02/27 01:07:12;;;;;;;19.45;5.25;;;2.60;99.90;;;;;;2103283;28;20107;-67
2022/02/27 01:08:12;;;;;;;15.80;5.55;;;2.60;99.90;;;;;;2102116;28;20520;-67
2022/02/27 01:09:13;;;;;;;13.88;5.53;;;2.60;99.90;;;;;;2105535;28;20045;-67
2022/02/27 01:10:13;;;;;;;11.25;5.10;;;2.60;99.90;;;;;;2107698;28;20050;-68
2022/02/27 01:11:14;;;;;;;14.30;5.70;;;2.60;99.90;;;;;;2107840;28;20056;-68
2022/02/27 01:12:14;;;;;;;16.75;4.93;;;2.70;99.90;;;;;;2106055;28;20027;-68
2022/02/27 01:13:15;;;;;;;11.45;5.28;;;2.60;99.90;;;;;;2102854;28;20127;-68
2022/02/27 01:14:15;;;;;;;14.07;5.30;;;2.70;99.90;;;;;;2104882;28;20070;-68
2022/02/27 01:15:17;;;;;;;15.02;4.60;;;2.70;99.90;;;;;;2103553;28;20056;-71
2022/02/27 01:16:17;;;;;;;12.02;5.20;;;2.70;99.90;;;;;;2102407;28;20032;-67
2022/02/27 01:17:18;;;;;;;13.75;5.18;;;2.70;99.90;;;;;;2102555;28;20024;-67
2022/02/27 01:18:19;;;;;;;14.95;5.30;;;2.70;99.90;;;;;;2103429;28;20051;-67
2022/02/27 01:19:19;;;;;;;14.68;5.85;;;2.70;99.90;;;;;;2103518;28;20024;-67
2022/02/27 01:20:20;;;;;;;16.17;5.22;;;2.70;99.90;;;;;;2105812;28;20738;-68
2022/02/27 01:21:20;;;;;;;12.02;4.43;;;2.70;99.90;;;;;;2101991;28;20038;-67
2022/02/27 01:22:21;;;;;;;11.18;4.43;;;2.70;99.90;;;;;;2102177;28;20110;-68
2022/02/27 01:23:22;;;;;;;13.35;5.13;;;2.70;99.90;;;;;;2103856;28;20372;-67
2022/02/27 01:24:22;;;;;;;15.02;5.07;;;2.80;99.90;;;;;;2100833;28;20031;-67
2022/02/27 01:25:23;;;;;;;13.02;5.18;;;2.70;99.90;;;;;;2103204;28;20514;-67
2022/02/27 01:26:23;;;;;;;10.82;4.82;;;2.80;99.90;;;;;;2103212;28;20024;-67
2022/02/27 01:27:24;;;;;;;12.73;5.50;;;2.70;99.90;;;;;;2102316;28;20085;-67
2022/02/27 01:28:24;;;;;;;11.73;4.22;;;2.70;99.90;;;;;;2104765;28;20019;-67
2022/02/27 01:29:25;;;;;;;15.70;5.57;;;2.70;99.90;;;;;;2101216;28;20027;-67
2022/02/27 01:30:26;;;;;;;13.85;5.18;;;2.80;99.90;;;;;;2107229;28;20058;-67
2022/02/27 01:31:26;;;;;;;12.05;4.55;;;2.70;99.90;;;;;;2102896;28;20031;-67
2022/02/27 01:32:27;;;;;;;8.98;4.45;;;2.70;99.90;;;;;;2099795;28;20032;-67
2022/02/27 01:33:28;;;;;;;17.10;5.30;;;2.70;99.90;;;;;;2103642;28;20472;-68
2022/02/27 01:34:28;;;;;;;12.20;4.75;;;2.70;99.90;;;;;;2102955;28;20067;-67
2022/02/27 01:35:29;;;;;;;14.57;4.80;;;2.70;99.90;;;;;;2105380;28;20114;-67
2022/02/27 01:36:29;;;;;;;11.15;4.90;;;2.70;99.90;;;;;;2103738;28;20115;-67
2022/02/27 01:37:30;;;;;;;16.45;5.10;;;2.70;99.90;;;;;;2103649;28;20016;-67
2022/02/27 01:38:30;;;;;;;15.18;5.35;;;2.80;99.90;;;;;;2106131;28;20028;-67
2022/02/27 01:39:31;;;;;;;13.07;4.70;;;2.70;99.90;;;;;;2102995;28;20070;-68
2022/02/27 01:40:32;;;;;;;13.50;4.75;;;2.70;99.90;;;;;;2099503;28;20527;-67
2022/02/27 01:41:32;;;;;;;9.98;4.18;;;2.70;99.90;;;;;;2106002;28;20099;-67
2022/02/27 01:42:33;;;;;;;16.33;6.18;;;2.70;99.90;;;;;;2102635;28;20028;-67
2022/02/27 01:43:34;;;;;;;15.63;4.68;;;2.70;99.90;;;;;;2104651;28;20016;-68
2022/02/27 01:44:34;;;;;;;11.85;4.72;;;2.70;99.90;;;;;;2104384;28;20115;-67
2022/02/27 01:45:35;;;;;;;13.20;4.82;;;2.70;99.90;;;;;;2102821;28;20123;-67
2022/02/27 01:46:35;;;;;;;12.00;4.70;;;2.70;99.90;;;;;;2104863;28;20016;-67
2022/02/27 01:47:36;;;;;;;13.57;5.18;;;2.70;99.90;;;;;;2099193;28;20611;-67
2022/02/27 01:48:38;;;;;;;14.73;4.53;;;2.70;99.90;;;;;;2096556;28;20021;-67
2022/02/27 01:49:39;;;;;;;11.75;4.55;;;2.70;99.90;;;;;;2106680;28;20035;-68
2022/02/27 01:50:40;;;;;;;14.57;4.95;;;2.70;99.90;;;;;;2103005;28;20473;-68
2022/02/27 01:51:41;;;;;;;13.43;4.85;;;2.70;99.90;;;;;;2103036;28;20417;-67
2022/02/27 01:52:41;;;;;;;13.25;4.85;;;2.70;99.90;;;;;;2106656;28;20019;-68
2022/02/27 01:53:42;;;;;;;9.80;4.68;;;2.70;99.90;;;;;;2100890;28;20024;-68
2022/02/27 01:54:43;;;;;;;13.75;4.60;;;2.70;99.90;;;;;;2105047;28;20575;-67
2022/02/27 01:55:45;;;;;;;13.85;5.65;;;2.70;99.90;;;;;;2104814;28;20107;-67
2022/02/27 01:56:46;;;;;;;13.18;4.30;;;2.70;99.90;;;;;;2105136;28;20118;-67
2022/02/27 01:57:46;;;;;;;16.00;4.82;;;2.70;99.90;;;;;;2103478;28;20020;-67
2022/02/27 01:58:47;;;;;;;14.43;4.65;;;2.70;99.90;;;;;;2102424;28;20024;-67
2022/02/27 01:59:47;;;;;;;13.43;4.22;;;2.60;99.90;;;;;;2102194;28;20061;-67
2022/02/27 02:00:48;;;;;;;15.18;5.15;;;2.70;99.90;;;;;;2101940;28;20288;-67
2022/02/27 02:01:49;;;;;;;10.70;4.90;;;2.60;99.90;;;;;;2101167;28;20059;-67
2022/02/27 02:02:50;;;;;;;9.88;4.45;;;2.60;99.90;;;;;;2103373;28;20043;-68
2022/02/27 02:03:51;;;;;;;11.43;4.75;;;2.60;99.90;;;;;;2101649;28;20024;-68
2022/02/27 02:04:51;;;;;;;11.82;4.53;;;2.60;99.90;;;;;;2103875;28;20021;-67
2022/02/27 02:06:01;;;;;;;9.13;4.65;;;2.60;99.90;;;;;;2103768;28;20891;-67
2022/02/27 02:07:02;;;;;;;10.77;4.38;;;2.60;99.90;;;;;;2100833;28;20063;-67
2022/02/27 02:08:03;;;;;;;9.35;4.22;;;2.60;99.90;;;;;;2106191;28;20028;-67
2022/02/27 02:09:05;;;;;;;8.38;4.03;;;2.60;99.90;;;;;;2105424;28;20072;-67
2022/02/27 02:10:06;;;;;;;12.73;4.38;;;2.60;99.90;;;;;;2100920;28;20372;-68
2022/02/27 02:11:07;;;;;;;9.02;4.20;;;2.50;99.90;;;;;;2101320;28;20418;-67
2022/02/27 02:12:09;;;;;;;11.50;4.15;;;2.50;99.90;;;;;;2102506;28;20051;-67
2022/02/27 02:13:10;;;;;;;14.57;4.93;;;2.50;99.90;;;;;;2098594;28;20023;-67
2022/02/27 02:14:11;;;;;;;9.32;4.38;;;2.50;99.90;;;;;;2102550;28;20032;-67
2022/02/27 02:15:12;;;;;;;10.00;4.57;;;2.50;99.90;;;;;;2102641;28;20019;-67
2022/02/27 02:16:12;;;;;;;12.20;4.30;;;2.50;99.90;;;;;;2102589;28;20024;-67
2022/02/27 02:17:13;;;;;;;10.65;4.97;;;2.50;99.90;;;;;;2103514;28;20034;-67
2022/02/27 02:18:13;;;;;;;9.35;3.70;;;2.50;99.90;;;;;;2101014;28;20039;-67
2022/02/27 02:19:15;;;;;;;11.43;4.72;;;2.40;99.90;;;;;;2102790;28;20060;-67
2022/02/27 02:20:18;;;;;;;18.48;5.43;;;2.50;99.90;;;;;;2103027;28;20043;-67
2022/02/27 02:21:18;;;;;;;16.45;5.18;;;2.40;99.90;;;;;;2099191;28;20032;-67
2022/02/27 02:22:19;;;;;;;10.25;3.90;;;2.40;99.90;;;;;;2099314;28;20821;-67
2022/02/27 02:23:19;;;;;;;14.07;4.47;;;2.40;99.90;;;;;;2103034;28;20099;-68
2022/02/27 02:24:21;;;;;;;12.10;5.15;;;2.40;99.90;;;;;;2096877;28;20050;-67
2022/02/27 02:25:21;;;;;;;14.48;5.00;;;2.40;99.90;;;;;;2105848;28;20391;-67
2022/02/27 02:26:23;;;;;;;17.90;4.80;;;2.40;99.90;;;;;;2101800;28;20107;-67
2022/02/27 02:27:24;;;;;;;10.00;4.82;;;2.30;99.90;;;;;;2099837;28;20085;-67
2022/02/27 02:28:24;;;;;;;15.23;5.05;;;2.30;99.90;;;;;;2103583;28;20483;-67
2022/02/27 02:29:25;;;;;;;10.23;4.68;;;2.30;99.90;;;;;;2102312;28;20466;-68
2022/02/27 02:30:26;;;;;;;11.25;4.13;;;2.30;99.90;;;;;;2105079;28;20048;-68
2022/02/27 02:31:26;;;;;;;10.15;4.30;;;2.30;99.90;;;;;;2102805;28;20066;-67
2022/02/27 02:32:27;;;;;;;10.02;4.38;;;2.30;99.90;;;;;;2101095;28;20109;-67
2022/02/27 02:33:35;;;;;;;11.52;4.85;;;2.30;99.90;;;;;;2105989;28;20028;-68
2022/02/27 02:34:36;;;;;;;15.82;5.15;;;2.30;99.90;;;;;;2104133;28;20036;-68
2022/02/27 02:35:38;;;;;;;12.38;5.00;;;2.30;99.90;;;;;;2098581;28;20465;-67
2022/02/27 02:36:39;;;;;;;21.65;5.53;;;2.20;99.90;;;;;;2105763;28;20043;-67
2022/02/27 02:37:40;;;;;;;15.10;5.50;;;2.20;99.90;;;;;;2103027;28;20027;-67
2022/02/27 02:38:41;;;;;;;13.93;5.35;;;2.20;99.90;;;;;;2104121;28;20063;-67
2022/02/27 02:39:41;;;;;;;8.32;4.70;;;2.20;99.90;;;;;;2103919;28;20612;-67
2022/02/27 02:40:42;;;;;;;11.68;4.82;;;2.20;99.90;;;;;;2099264;28;20525;-67
2022/02/27 02:41:43;;;;;;;18.10;5.30;;;2.20;99.90;;;;;;2104829;28;20036;-67
2022/02/27 02:42:46;;;;;;;14.73;5.00;;;2.20;99.90;;;;;;2100074;28;20146;-67
2022/02/27 02:43:47;;;;;;;10.80;4.68;;;2.10;99.90;;;;;;2102753;28;20664;-67
2022/02/27 02:44:49;;;;;;;12.23;5.55;;;2.20;99.90;;;;;;2105125;28;20028;-67
2022/02/27 02:45:53;;;;;;;15.57;5.82;;;2.20;99.90;;;;;;2101564;28;20059;-67
2022/02/27 02:46:54;;;;;;;15.02;5.35;;;2.10;99.90;;;;;;2102201;28;20024;-68
2022/02/27 02:47:55;;;;;;;11.18;5.10;;;2.10;99.90;;;;;;2099490;28;20028;-68
2022/02/27 02:48:56;;;;;;;11.75;5.03;;;2.10;99.90;;;;;;2099642;28;20031;-68
2022/02/27 02:49:57;;;;;;;10.13;5.38;;;2.10;99.90;;;;;;2100461;28;20609;-68
2022/02/27 02:50:57;;;;;;;13.25;5.18;;;2.10;99.90;;;;;;2105000;28;20178;-67
2022/02/27 02:51:58;;;;;;;16.85;5.80;;;2.10;99.90;;;;;;2102269;28;20085;-68
2022/02/27 02:52:59;;;;;;;12.88;4.95;;;2.10;99.90;;;;;;2103901;28;20618;-68
2022/02/27 02:53:59;;;;;;;15.73;6.05;;;2.10;99.90;;;;;;2099971;28;20024;-68
2022/02/27 02:55:01;;;;;;;17.63;5.30;;;2.10;99.90;;;;;;2105560;28;20489;-68
2022/02/27 02:56:05;;;;;;;13.10;5.03;;;2.00;99.90;;;;;;2102330;28;20020;-68
2022/02/27 02:57:05;;;;;;;11.60;6.13;;;2.00;99.90;;;;;;2100379;28;20032;-67
2022/02/27 02:58:06;;;;;;;10.07;4.40;;;2.00;99.90;;;;;;2104599;28;20633;-68
2022/02/27 02:59:07;;;;;;;15.52;5.15;;;2.00;99.90;;;;;;2102544;28;20082;-67
2022/02/27 03:00:10;;;;;;;12.30;5.60;;;2.00;99.90;;;;;;2101528;28;20042;-67
2022/02/27 03:01:14;;;;;;;14.57;5.13;;;2.00;99.90;;;;;;2102217;28;20020;-67
2022/02/27 03:02:15;;;;;;;12.57;5.25;;;2.00;99.90;;;;;;2104651;28;20020;-67
2022/02/27 03:03:15;;;;;;;13.18;6.45;;;2.00;99.90;;;;;;2105226;28;20055;-67
2022/02/27 03:04:16;;;;;;;12.68;6.25;;;2.00;99.90;;;;;;2103921;28;20028;-67
2022/02/27 03:05:17;;;;;;;12.23;4.47;;;1.90;99.90;;;;;;2102786;28;20020;-67
2022/02/27 03:06:18;;;;;;;14.10;6.03;;;1.90;99.90;;;;;;2104491;28;20058;-67
2022/02/27 03:07:18;;;;;;;13.27;5.50;;;1.90;99.90;;;;;;2105479;28;20554;-67
2022/02/27 03:08:19;;;;;;;13.55;5.20;;;1.90;99.90;;;;;;2102489;28;20047;-68
2022/02/27 03:09:19;;;;;;;13.63;5.68;;;1.90;99.90;;;;;;2108661;28;20024;-67
2022/02/27 03:10:20;;;;;;;15.88;5.07;;;1.90;99.90;;;;;;2106503;28;20051;-67
2022/02/27 03:11:21;;;;;;;11.70;5.72;;;1.90;99.90;;;;;;2107272;28;20024;-67
2022/02/27 03:12:22;;;;;;;13.95;5.43;;;1.90;99.90;;;;;;2105895;28;20032;-67
2022/02/27 03:13:22;;;;;;;10.38;5.32;;;1.90;99.90;;;;;;2103238;28;20030;-67
2022/02/27 03:14:23;;;;;;;14.38;5.55;;;1.90;99.90;;;;;;2104268;28;20032;-67
2022/02/27 03:15:23;;;;;;;16.88;6.00;;;1.90;99.90;;;;;;2106079;28;20036;-67
2022/02/27 03:16:24;;;;;;;17.13;6.13;;;1.80;99.90;;;;;;2101734;28;20039;-67
2022/02/27 03:17:24;;;;;;;11.95;6.03;;;1.80;99.90;;;;;;2111166;28;20356;-67
2022/02/27 03:18:25;;;;;;;15.82;6.05;;;1.80;99.90;;;;;;2106706;28;20095;-68
2022/02/27 03:19:26;;;;;;;14.95;6.00;;;1.80;99.90;;;;;;2103909;28;20039;-67
2022/02/27 03:20:26;;;;;;;14.45;6.10;;;1.80;99.90;;;;;;2107453;28;20055;-67
2022/02/27 03:21:27;;;;;;;13.95;5.82;;;1.80;99.90;;;;;;2102679;28;20465;-67
2022/02/27 03:22:28;;;;;;;13.55;6.25;;;1.80;99.90;;;;;;2109753;28;20032;-67
2022/02/27 03:23:28;;;;;;;12.77;5.43;;;1.80;99.90;;;;;;2105448;28;20206;-67
2022/02/27 03:24:29;;;;;;;18.80;6.57;;;1.80;99.90;;;;;;2105392;28;20088;-67
2022/02/27 03:25:29;;;;;;;16.48;5.95;;;1.80;99.90;;;;;;2104878;28;20020;-67
2022/02/27 03:26:30;;;;;;;16.23;5.78;;;1.80;99.90;;;;;;2104829;28;20024;-67
2022/02/27 03:27:30;;;;;;;10.57;5.35;;;1.80;99.90;;;;;;2105859;28;20028;-67
2022/02/27 03:28:31;;;;;;;15.80;6.38;;;1.80;99.90;;;;;;2105874;28;20399;-68
2022/02/27 03:29:32;;;;;;;15.23;5.80;;;1.80;99.90;;;;;;2105378;28;20024;-67
2022/02/27 03:30:36;;;;;;;16.38;6.05;;;1.80;99.90;;;;;;2108645;28;20034;-67
2022/02/27 03:31:37;;;;;;;13.80;6.15;;;1.80;99.90;;;;;;2103565;28;20025;-67
2022/02/27 03:32:37;;;;;;;13.50;5.30;;;1.70;99.90;;;;;;2103569;28;20494;-67
2022/02/27 03:33:38;;;;;;;12.85;6.60;;;1.70;99.90;;;;;;2108723;28;20356;-67
2022/02/27 03:34:39;;;;;;;12.48;5.63;;;1.70;99.90;;;;;;2105612;28;20063;-67
2022/02/27 03:35:40;;;;;;;14.65;5.70;;;1.70;99.90;;;;;;2105599;28;20360;-67
2022/02/27 03:36:41;;;;;;;13.27;5.63;;;1.70;99.90;;;;;;2107868;28;20483;-67
2022/02/27 03:37:42;;;;;;;13.82;5.70;;;1.70;99.90;;;;;;2105758;28;20346;-67
2022/02/27 03:38:43;;;;;;;19.20;6.43;;;1.70;99.90;;;;;;2107678;28;20044;-68
2022/02/27 03:39:44;;;;;;;10.50;5.32;;;1.70;99.90;;;;;;2104307;28;20023;-67
2022/02/27 03:40:44;;;;;;;15.13;5.93;;;1.70;99.90;;;;;;2101839;28;20032;-67
2022/02/27 03:41:45;;;;;;;12.70;5.43;;;1.70;99.90;;;;;;2108310;28;20028;-68
2022/02/27 03:42:46;;;;;;;13.55;6.47;;;1.70;99.90;;;;;;2106145;28;20388;-67
2022/02/27 03:43:46;;;;;;;12.75;5.53;;;1.70;99.90;;;;;;2104030;28;20020;-67
2022/02/27 03:44:47;;;;;;;15.98;5.45;;;1.70;99.90;;;;;;2105021;28;20028;-67
2022/02/27 03:45:47;;;;;;;14.25;6.25;;;1.70;99.90;;;;;;2104600;28;20020;-67
2022/02/27 03:46:48;;;;;;;19.00;7.03;;;1.70;99.90;;;;;;2106116;28;20020;-67
2022/02/27 03:47:48;;;;;;;11.32;5.43;;;1.70;99.90;;;;;;2101824;28;20073;-67
2022/02/27 03:48:49;;;;;;;12.27;5.43;;;1.60;99.90;;;;;;2101113;28;20035;-67
2022/02/27 03:49:49;;;;;;;12.57;5.55;;;1.70;99.90;;;;;;2107145;28;20032;-67
2022/02/27 03:50:50;;;;;;;14.48;6.85;;;1.60;99.90;;;;;;2101193;28;20039;-67
2022/02/27 03:51:51;;;;;;;16.27;5.82;;;1.60;99.90;;;;;;2103682;28;20442;-68
2022/02/27 03:52:51;;;;;;;14.88;6.13;;;1.60;99.90;;;;;;2103305;28;20036;-67
2022/02/27 03:53:52;;;;;;;15.85;6.45;;;1.60;99.90;;;;;;2105711;28;20078;-67
2022/02/27 03:54:52;;;;;;;14.65;6.40;;;1.60;99.90;;;;;;2106098;28;20574;-67
2022/02/27 03:55:53;;;;;;;15.68;6.22;;;1.60;99.90;;;;;;2107962;28;20024;-67
2022/02/27 03:56:53;;;;;;;14.48;6.20;;;1.60;99.90;;;;;;2105530;28;20053;-67
2022/02/27 03:57:54;;;;;;;14.18;5.32;;;1.60;99.90;;;;;;2106341;28;20024;-67
2022/02/27 03:58:54;;;;;;;14.10;5.55;;;1.60;99.90;;;;;;2105079;28;20028;-68
2022/02/27 03:59:55;;;;;;;14.30;6.50;;;1.60;99.90;;;;;;2106497;28;20032;-67
2022/02/27 04:00:55;;;;;;;11.63;6.07;;;1.60;99.90;;;;;;2105775;28;20028;-67
2022/02/27 04:01:56;;;;;;;12.57;6.07;;;1.60;99.90;;;;;;2104736;28;20024;-67
2022/02/27 04:02:57;;;;;;;16.77;6.28;;;1.60;99.90;;;;;;2104834;28;20069;-67
2022/02/27 04:04:00;;;;;;;12.15;5.68;;;1.60;99.90;;;;;;2103072;28;20077;-67
2022/02/27 04:05:00;;;;;;;15.25;6.22;;;1.60;99.90;;;;;;2102847;28;20372;-67
2022/02/27 04:06:01;;;;;;;13.18;5.43;;;1.60;99.90;;;;;;2102707;28;20485;-67
2022/02/27 04:07:02;;;;;;;15.48;5.82;;;1.60;99.90;;;;;;2104345;28;20020;-67
2022/02/27 04:08:03;;;;;;;15.95;6.10;;;1.60;99.90;;;;;;2105593;28;20028;-67
2022/02/27 04:09:04;;;;;;;11.32;6.00;;;1.60;99.90;;;;;;2101236;28;20020;-68
2022/02/27 04:10:05;;;;;;;11.70;6.18;;;1.50;99.90;;;;;;2103757;28;20027;-68
2022/02/27 04:11:06;;;;;;;14.98;5.90;;;1.60;99.90;;;;;;2105106;28;20135;-67
2022/02/27 04:12:08;;;;;;;17.20;7.00;;;1.50;99.90;;;;;;2103057;28;20031;-67
2022/02/27 04:13:08;;;;;;;12.10;5.40;;;1.50;99.90;;;;;;2103284;28;20138;-67
2022/02/27 04:14:09;;;;;;;14.55;5.90;;;1.50;99.90;;;;;;2103931;28;20044;-67
2022/02/27 04:15:10;;;;;;;10.57;5.63;;;1.50;99.90;;;;;;2103147;28;20127;-67
2022/02/27 04:16:10;;;;;;;12.10;5.28;;;1.50;99.90;;;;;;2101411;28;20036;-67
2022/02/27 04:17:11;;;;;;;11.25;5.47;;;1.50;99.90;;;;;;2106009;28;20028;-68
2022/02/27 04:18:11;;;;;;;16.45;5.63;;;1.50;99.90;;;;;;2102481;28;20107;-67
2022/02/27 04:19:12;;;;;;;15.13;5.57;;;1.50;99.90;;;;;;2105583;28;20565;-67
2022/02/27 04:20:12;;;;;;;10.38;5.10;;;1.50;99.90;;;;;;2107251;28;20027;-67
2022/02/27 04:21:13;;;;;;;14.43;5.95;;;1.50;99.90;;;;;;2105411;28;20082;-67
2022/02/27 04:22:13;;;;;;;12.93;5.93;;;1.50;99.90;;;;;;2105068;28;20032;-67
2022/02/27 04:23:14;;;;;;;13.55;5.85;;;1.50;99.90;;;;;;2104582;28;20047;-67
2022/02/27 04:24:15;;;;;;;11.88;5.38;;;1.50;99.90;;;;;;2102703;28;20116;-67
2022/02/27 04:25:16;;;;;;;14.25;5.20;;;1.50;99.90;;;;;;2105258;28;20030;-67
2022/02/27 04:26:16;;;;;;;13.85;5.53;;;1.50;99.90;;;;;;2101851;28;20048;-67
2022/02/27 04:27:17;;;;;;;16.23;5.70;;;1.50;99.90;;;;;;2100655;28;20056;-67
2022/02/27 04:28:17;;;;;;;12.70;5.38;;;1.50;99.90;;;;;;2105724;28;20031;-67
2022/02/27 04:29:18;;;;;;;12.82;5.20;;;1.60;99.90;;;;;;2104597;28;20089;-67
2022/02/27 04:30:19;;;;;;;10.30;5.32;;;1.50;99.90;;;;;;2103324;28;20028;-67
2022/02/27 04:31:19;;;;;;;12.48;5.75;;;1.50;99.90;;;;;;2103296;28;20111;-67
2022/02/27 04:32:20;;;;;;;14.48;4.88;;;1.60;99.90;;;;;;2102892;28;20032;-67
2022/02/27 04:33:20;;;;;;;14.80;5.95;;;1.50;99.90;;;;;;2105123;28;20377;-68
2022/02/27 04:34:21;;;;;;;12.45;4.80;;;1.50;99.90;;;;;;2101979;28;20133;-68
2022/02/27 04:35:21;;;;;;;14.43;5.70;;;1.50;99.90;;;;;;2107615;28;20653;-67
2022/02/27 04:36:22;;;;;;;18.38;5.32;;;1.50;99.90;;;;;;2105534;28;20089;-67
2022/02/27 04:37:22;;;;;;;15.80;5.47;;;1.50;99.90;;;;;;2104415;28;20099;-67
2022/02/27 04:38:23;;;;;;;12.55;5.50;;;1.50;99.90;;;;;;2107733;28;20076;-67
2022/02/27 04:39:23;;;;;;;16.67;5.75;;;1.50;99.90;;;;;;2102453;28;20050;-68
2022/02/27 04:40:24;;;;;;;12.57;5.10;;;1.50;99.90;;;;;;2101634;28;20051;-67
2022/02/27 04:41:24;;;;;;;14.55;5.20;;;1.50;99.90;;;;;;2104217;28;20039;-67
2022/02/27 04:42:25;;;;;;;11.52;5.22;;;1.50;99.90;;;;;;2100205;28;20062;-68
2022/02/27 04:43:26;;;;;;;9.48;5.07;;;1.50;99.90;;;;;;2104377;28;20081;-67
2022/02/27 04:44:26;;;;;;;17.30;5.68;;;1.50;99.90;;;;;;2100851;28;20407;-67
2022/02/27 04:45:28;;;;;;;17.17;6.00;;;1.50;99.90;;;;;;2102248;28;20080;-67
2022/02/27 04:46:28;;;;;;;12.30;5.18;;;1.50;99.90;;;;;;2106177;28;20038;-67
2022/02/27 04:47:29;;;;;;;14.52;5.00;;;1.50;99.90;;;;;;2102112;28;20035;-67
2022/02/27 04:48:29;;;;;;;11.25;4.47;;;1.50;99.90;;;;;;2100352;28;20480;-67
2022/02/27 04:49:30;;;;;;;19.70;5.80;;;1.50;99.90;;;;;;2107054;28;20016;-68
2022/02/27 04:50:30;;;;;;;10.07;5.63;;;1.50;99.90;;;;;;2100429;28;20418;-68
2022/02/27 04:51:31;;;;;;;13.65;5.40;;;1.50;99.90;;;;;;2105850;28;20016;-69
2022/02/27 04:52:32;;;;;;;11.57;4.78;;;1.50;99.90;;;;;;2104323;28;20111;-67
2022/02/27 04:53:33;;;;;;;9.02;4.60;;;1.50;99.90;;;;;;2103225;28;20024;-67
2022/02/27 04:54:35;;;;;;;12.98;4.95;;;1.50;99.90;;;;;;2106894;28;20085;-67
2022/02/27 04:55:36;;;;;;;13.18;5.28;;;1.50;99.90;;;;;;2102012;28;20369;-67
2022/02/27 04:56:37;;;;;;;12.57;5.25;;;1.50;99.90;;;;;;2101245;28;20095;-68
2022/02/27 04:57:37;;;;;;;10.70;4.95;;;1.50;99.90;;;;;;2105132;28;20085;-67
2022/02/27 04:58:38;;;;;;;12.20;5.28;;;1.40;99.90;;;;;;2100552;28;20056;-67
2022/02/27 04:59:38;;;;;;;13.23;4.75;;;1.40;99.90;;;;;;2104159;28;20035;-67
2022/02/27 05:00:40;;;;;;;10.68;4.93;;;1.40;99.90;;;;;;2103661;28;20042;-68
2022/02/27 05:01:40;;;;;;;9.73;4.82;;;1.40;99.90;;;;;;2102436;28;20029;-68
2022/02/27 05:02:41;;;;;;;9.43;4.68;;;1.40;99.90;;;;;;2104828;28;20099;-67
2022/02/27 05:03:42;;;;;;;12.05;5.15;;;1.40;99.90;;;;;;2100943;28;20023;-67
2022/02/27 05:04:42;;;;;;;14.60;5.72;;;1.40;99.90;;;;;;2101986;28;20027;-68
2022/02/27 05:05:43;;;;;;;13.00;5.43;;;1.40;99.90;;;;;;2102594;28;20419;-68
2022/02/27 05:06:43;;;;;;;17.60;5.82;;;1.40;99.90;;;;;;2100359;28;20059;-67
2022/02/27 05:07:44;;;;;;;15.15;5.63;;;1.40;99.90;;;;;;2107523;28;20136;-67
2022/02/27 05:08:44;;;;;;;13.32;5.45;;;1.40;99.90;;;;;;2106104;28;20106;-68
2022/02/27 05:09:45;;;;;;;13.80;5.43;;;1.40;99.90;;;;;;2102921;28;20020;-67
2022/02/27 05:10:45;;;;;;;16.15;6.70;;;1.40;99.90;;;;;;2106344;28;20452;-67
2022/02/27 05:11:48;;;;;;;13.93;5.50;;;1.40;99.90;;;;;;2101449;28;20861;-68
2022/02/27 05:12:48;;;;;;;14.27;5.85;;;1.50;99.90;;;;;;2105959;28;20044;-68
2022/02/27 05:13:49;;;;;;;12.20;6.07;;;1.50;99.90;;;;;;2102212;28;20024;-67
2022/02/27 05:14:49;;;;;;;14.20;6.53;;;1.50;99.90;;;;;;2100553;28;20058;-68
2022/02/27 05:15:50;;;;;;;17.60;5.93;;;1.50;99.90;;;;;;2106588;28;20028;-67
2022/02/27 05:16:51;;;;;;;12.05;6.18;;;1.50;99.90;;;;;;2103627;28;20034;-68